sensor_id;sensor_type;location;lat;lon;timestamp;P1;durP1;ratioP1;P2;durP2;ratioP2
12681;SDS011;6405;59.208;18.216;2023-12-07T00:01:14;15.00;;;6.93;;
12681;SDS011;6405;59.208;18.216;2023-12-07T00:03:39;17.73;;;7.60;;
12681;SDS011;6405;59.208;18.216;2023-12-07T00:06:05;13.43;;;7.40;;
12681;SDS011;6405;59.208;18.216;2023-12-07T00:08:31;14.97;;;8.07;;
12681;SDS011;6405;59.208;18.216;2023-12-07T00:10:57;12.60;;;7.33;;
12681;SDS011;6405;59.208;18.216;2023-12-07T00:13:22;18.97;;;7.53;;
12681;SDS011;6405;59.208;18.216;2023-12-07T00:15:48;15.43;;;7.63;;
12681;SDS011;6405;59.208;18.216;2023-12-07T00:18:14;13.70;;;6.93;;
12681;SDS011;6405;59.208;18.216;2023-12-07T00:20:39;14.13;;;6.90;;
12681;SDS011;6405;59.208;18.216;2023-12-07T00:23:05;15.77;;;7.33;;
12681;SDS011;6405;59.208;18.216;2023-12-07T00:25:31;13.37;;;6.63;;
12681;SDS011;6405;59.208;18.216;2023-12-07T00:27:56;15.37;;;7.30;;
12681;SDS011;6405;59.208;18.216;2023-12-07T00:30:22;12.90;;;6.57;;
12681;SDS011;6405;59.208;18.216;2023-12-07T00:32:48;14.83;;;6.53;;
12681;SDS011;6405;59.208;18.216;2023-12-07T00:35:14;16.83;;;6.80;;
12681;SDS011;6405;59.208;18.216;2023-12-07T00:37:41;12.70;;;6.20;;
12681;SDS011;6405;59.208;18.216;2023-12-07T00:40:07;12.50;;;6.33;;
12681;SDS011;6405;59.208;18.216;2023-12-07T00:42:33;12.43;;;6.17;;
12681;SDS011;6405;59.208;18.216;2023-12-07T00:45:02;16.17;;;6.13;;
12681;SDS011;6405;59.208;18.216;2023-12-07T00:47:29;11.73;;;6.03;;
12681;SDS011;6405;59.208;18.216;2023-12-07T00:49:54;13.60;;;5.97;;
12681;SDS011;6405;59.208;18.216;2023-12-07T00:52:20;11.37;;;5.87;;
12681;SDS011;6405;59.208;18.216;2023-12-07T00:54:46;11.00;;;5.87;;
12681;SDS011;6405;59.208;18.216;2023-12-07T00:57:11;12.50;;;5.87;;
12681;SDS011;6405;59.208;18.216;2023-12-07T00:59:37;12.93;;;6.57;;
12681;SDS011;6405;59.208;18.216;2023-12-07T01:02:03;10.30;;;5.13;;
12681;SDS011;6405;59.208;18.216;2023-12-07T01:04:30;12.80;;;5.70;;
12681;SDS011;6405;59.208;18.216;2023-12-07T01:06:56;14.73;;;6.60;;
12681;SDS011;6405;59.208;18.216;2023-12-07T01:09:22;13.27;;;5.70;;
12681;SDS011;6405;59.208;18.216;2023-12-07T01:11:48;14.20;;;6.23;;
12681;SDS011;6405;59.208;18.216;2023-12-07T01:14:14;16.17;;;6.37;;
12681;SDS011;6405;59.208;18.216;2023-12-07T01:16:40;13.40;;;6.50;;
12681;SDS011;6405;59.208;18.216;2023-12-07T01:19:06;14.10;;;5.77;;
12681;SDS011;6405;59.208;18.216;2023-12-07T01:21:34;11.73;;;5.50;;
12681;SDS011;6405;59.208;18.216;2023-12-07T01:24:00;14.63;;;6.20;;
12681;SDS011;6405;59.208;18.216;2023-12-07T01:26:26;11.33;;;5.80;;
12681;SDS011;6405;59.208;18.216;2023-12-07T01:28:51;11.57;;;6.40;;
12681;SDS011;6405;59.208;18.216;2023-12-07T01:31:17;11.07;;;5.57;;
12681;SDS011;6405;59.208;18.216;2023-12-07T01:33:43;13.60;;;5.90;;
12681;SDS011;6405;59.208;18.216;2023-12-07T01:36:09;11.40;;;6.20;;
12681;SDS011;6405;59.208;18.216;2023-12-07T01:38:36;14.03;;;5.80;;
12681;SDS011;6405;59.208;18.216;2023-12-07T01:41:01;10.67;;;5.97;;
12681;SDS011;6405;59.208;18.216;2023-12-07T01:43:27;11.83;;;5.03;;
12681;SDS011;6405;59.208;18.216;2023-12-07T01:45:54;10.87;;;5.90;;
12681;SDS011;6405;59.208;18.216;2023-12-07T01:48:22;9.70;;;4.83;;
12681;SDS011;6405;59.208;18.216;2023-12-07T01:50:50;11.07;;;5.57;;
12681;SDS011;6405;59.208;18.216;2023-12-07T01:53:16;11.03;;;5.43;;
12681;SDS011;6405;59.208;18.216;2023-12-07T01:55:42;11.03;;;5.33;;
12681;SDS011;6405;59.208;18.216;2023-12-07T01:58:08;10.63;;;5.47;;
12681;SDS011;6405;59.208;18.216;2023-12-07T02:00:35;11.87;;;5.63;;
12681;SDS011;6405;59.208;18.216;2023-12-07T02:03:04;9.03;;;5.07;;
12681;SDS011;6405;59.208;18.216;2023-12-07T02:05:31;10.97;;;5.13;;
12681;SDS011;6405;59.208;18.216;2023-12-07T02:07:58;11.30;;;5.30;;
12681;SDS011;6405;59.208;18.216;2023-12-07T02:10:24;8.83;;;5.00;;
12681;SDS011;6405;59.208;18.216;2023-12-07T02:12:50;11.47;;;5.00;;
12681;SDS011;6405;59.208;18.216;2023-12-07T02:15:18;10.43;;;5.27;;
12681;SDS011;6405;59.208;18.216;2023-12-07T02:20:37;9.60;;;5.50;;
12681;SDS011;6405;59.208;18.216;2023-12-07T02:23:09;8.07;;;4.73;;
12681;SDS011;6405;59.208;18.216;2023-12-07T02:28:52;10.43;;;4.80;;
12681;SDS011;6405;59.208;18.216;2023-12-07T02:31:18;10.87;;;5.10;;
12681;SDS011;6405;59.208;18.216;2023-12-07T02:33:44;9.77;;;5.03;;
12681;SDS011;6405;59.208;18.216;2023-12-07T02:36:09;8.27;;;4.13;;
12681;SDS011;6405;59.208;18.216;2023-12-07T02:38:37;7.17;;;4.20;;
12681;SDS011;6405;59.208;18.216;2023-12-07T02:41:03;11.20;;;5.60;;
12681;SDS011;6405;59.208;18.216;2023-12-07T02:43:31;9.17;;;4.67;;
12681;SDS011;6405;59.208;18.216;2023-12-07T02:45:57;8.60;;;4.70;;
12681;SDS011;6405;59.208;18.216;2023-12-07T02:48:23;8.07;;;4.67;;
12681;SDS011;6405;59.208;18.216;2023-12-07T02:50:49;8.80;;;4.67;;
12681;SDS011;6405;59.208;18.216;2023-12-07T02:53:14;9.90;;;4.90;;
12681;SDS011;6405;59.208;18.216;2023-12-07T02:55:40;9.63;;;5.10;;
12681;SDS011;6405;59.208;18.216;2023-12-07T02:58:06;11.93;;;4.90;;
12681;SDS011;6405;59.208;18.216;2023-12-07T03:00:31;9.63;;;4.73;;
12681;SDS011;6405;59.208;18.216;2023-12-07T03:02:57;6.37;;;3.80;;
12681;SDS011;6405;59.208;18.216;2023-12-07T03:05:23;7.90;;;4.50;;
12681;SDS011;6405;59.208;18.216;2023-12-07T03:07:48;9.90;;;5.00;;
12681;SDS011;6405;59.208;18.216;2023-12-07T03:10:14;8.10;;;4.20;;
12681;SDS011;6405;59.208;18.216;2023-12-07T03:12:40;8.57;;;4.50;;
12681;SDS011;6405;59.208;18.216;2023-12-07T03:15:06;8.37;;;4.43;;
12681;SDS011;6405;59.208;18.216;2023-12-07T03:17:32;10.07;;;4.60;;
12681;SDS011;6405;59.208;18.216;2023-12-07T03:19:57;6.33;;;4.13;;
12681;SDS011;6405;59.208;18.216;2023-12-07T03:22:23;8.77;;;4.10;;
12681;SDS011;6405;59.208;18.216;2023-12-07T03:24:50;7.83;;;3.93;;
12681;SDS011;6405;59.208;18.216;2023-12-07T03:27:17;8.70;;;4.23;;
12681;SDS011;6405;59.208;18.216;2023-12-07T03:29:43;9.40;;;3.90;;
12681;SDS011;6405;59.208;18.216;2023-12-07T03:32:09;8.07;;;4.00;;
12681;SDS011;6405;59.208;18.216;2023-12-07T03:34:35;5.70;;;3.53;;
12681;SDS011;6405;59.208;18.216;2023-12-07T03:37:00;10.20;;;4.43;;
12681;SDS011;6405;59.208;18.216;2023-12-07T03:39:26;5.63;;;3.43;;
12681;SDS011;6405;59.208;18.216;2023-12-07T03:41:52;8.37;;;3.80;;
12681;SDS011;6405;59.208;18.216;2023-12-07T03:44:18;6.83;;;3.47;;
12681;SDS011;6405;59.208;18.216;2023-12-07T03:46:43;10.90;;;4.60;;
12681;SDS011;6405;59.208;18.216;2023-12-07T03:49:09;6.13;;;3.53;;
12681;SDS011;6405;59.208;18.216;2023-12-07T03:51:35;6.87;;;3.20;;
12681;SDS011;6405;59.208;18.216;2023-12-07T03:54:02;5.87;;;3.27;;
12681;SDS011;6405;59.208;18.216;2023-12-07T03:56:29;7.30;;;3.93;;
12681;SDS011;6405;59.208;18.216;2023-12-07T03:58:56;4.73;;;2.87;;
12681;SDS011;6405;59.208;18.216;2023-12-07T04:01:25;7.03;;;3.47;;
12681;SDS011;6405;59.208;18.216;2023-12-07T04:03:52;5.90;;;3.10;;
12681;SDS011;6405;59.208;18.216;2023-12-07T04:06:18;5.10;;;3.00;;
12681;SDS011;6405;59.208;18.216;2023-12-07T04:08:45;9.40;;;3.77;;
12681;SDS011;6405;59.208;18.216;2023-12-07T04:11:12;4.20;;;2.67;;
12681;SDS011;6405;59.208;18.216;2023-12-07T04:13:38;5.43;;;2.97;;
12681;SDS011;6405;59.208;18.216;2023-12-07T04:16:04;4.93;;;2.80;;
12681;SDS011;6405;59.208;18.216;2023-12-07T04:18:30;4.73;;;2.70;;
12681;SDS011;6405;59.208;18.216;2023-12-07T04:20:56;6.13;;;3.07;;
12681;SDS011;6405;59.208;18.216;2023-12-07T04:23:22;7.73;;;3.30;;
12681;SDS011;6405;59.208;18.216;2023-12-07T04:25:47;6.67;;;3.10;;
12681;SDS011;6405;59.208;18.216;2023-12-07T04:28:13;3.00;;;2.33;;
12681;SDS011;6405;59.208;18.216;2023-12-07T04:30:39;5.97;;;3.00;;
12681;SDS011;6405;59.208;18.216;2023-12-07T04:33:05;5.00;;;2.63;;
12681;SDS011;6405;59.208;18.216;2023-12-07T04:35:30;8.57;;;3.30;;
12681;SDS011;6405;59.208;18.216;2023-12-07T04:37:56;6.67;;;3.00;;
12681;SDS011;6405;59.208;18.216;2023-12-07T04:40:22;6.97;;;3.07;;
12681;SDS011;6405;59.208;18.216;2023-12-07T04:42:49;6.13;;;2.67;;
12681;SDS011;6405;59.208;18.216;2023-12-07T04:45:15;4.50;;;2.40;;
12681;SDS011;6405;59.208;18.216;2023-12-07T04:47:41;3.73;;;2.40;;
12681;SDS011;6405;59.208;18.216;2023-12-07T04:50:07;5.77;;;2.83;;
12681;SDS011;6405;59.208;18.216;2023-12-07T04:52:33;4.67;;;2.67;;
12681;SDS011;6405;59.208;18.216;2023-12-07T04:54:59;4.30;;;2.43;;
12681;SDS011;6405;59.208;18.216;2023-12-07T04:57:25;4.40;;;2.47;;
12681;SDS011;6405;59.208;18.216;2023-12-07T04:59:50;5.37;;;3.00;;
12681;SDS011;6405;59.208;18.216;2023-12-07T05:02:16;5.73;;;2.70;;
12681;SDS011;6405;59.208;18.216;2023-12-07T05:04:43;5.97;;;2.93;;
12681;SDS011;6405;59.208;18.216;2023-12-07T05:07:10;4.27;;;2.77;;
12681;SDS011;6405;59.208;18.216;2023-12-07T05:09:39;4.47;;;2.67;;
12681;SDS011;6405;59.208;18.216;2023-12-07T05:12:05;4.20;;;2.43;;
12681;SDS011;6405;59.208;18.216;2023-12-07T05:14:31;4.57;;;2.30;;
12681;SDS011;6405;59.208;18.216;2023-12-07T05:16:58;6.57;;;2.83;;
12681;SDS011;6405;59.208;18.216;2023-12-07T05:19:24;4.70;;;2.73;;
12681;SDS011;6405;59.208;18.216;2023-12-07T05:21:53;4.50;;;2.80;;
12681;SDS011;6405;59.208;18.216;2023-12-07T05:24:19;4.50;;;2.30;;
12681;SDS011;6405;59.208;18.216;2023-12-07T05:26:45;6.80;;;2.93;;
12681;SDS011;6405;59.208;18.216;2023-12-07T05:29:11;5.73;;;2.70;;
12681;SDS011;6405;59.208;18.216;2023-12-07T05:31:37;4.00;;;2.67;;
12681;SDS011;6405;59.208;18.216;2023-12-07T05:34:03;5.80;;;3.30;;
12681;SDS011;6405;59.208;18.216;2023-12-07T05:36:29;4.77;;;2.87;;
12681;SDS011;6405;59.208;18.216;2023-12-07T05:38:55;8.33;;;3.47;;
12681;SDS011;6405;59.208;18.216;2023-12-07T05:41:20;4.83;;;2.67;;
12681;SDS011;6405;59.208;18.216;2023-12-07T05:43:46;3.97;;;2.60;;
12681;SDS011;6405;59.208;18.216;2023-12-07T05:46:12;6.70;;;3.30;;
12681;SDS011;6405;59.208;18.216;2023-12-07T05:48:37;4.97;;;3.23;;
12681;SDS011;6405;59.208;18.216;2023-12-07T05:51:03;5.13;;;3.00;;
12681;SDS011;6405;59.208;18.216;2023-12-07T05:53:30;6.23;;;2.93;;
12681;SDS011;6405;59.208;18.216;2023-12-07T05:55:57;5.27;;;3.07;;
12681;SDS011;6405;59.208;18.216;2023-12-07T05:58:23;5.60;;;2.73;;
12681;SDS011;6405;59.208;18.216;2023-12-07T06:00:49;4.47;;;2.77;;
12681;SDS011;6405;59.208;18.216;2023-12-07T06:03:15;5.90;;;3.20;;
12681;SDS011;6405;59.208;18.216;2023-12-07T06:05:41;4.77;;;3.30;;
12681;SDS011;6405;59.208;18.216;2023-12-07T06:08:08;7.47;;;3.53;;
12681;SDS011;6405;59.208;18.216;2023-12-07T06:10:34;6.37;;;3.47;;
12681;SDS011;6405;59.208;18.216;2023-12-07T06:13:01;8.77;;;3.53;;
12681;SDS011;6405;59.208;18.216;2023-12-07T06:15:27;7.07;;;4.40;;
12681;SDS011;6405;59.208;18.216;2023-12-07T06:17:53;11.67;;;4.63;;
12681;SDS011;6405;59.208;18.216;2023-12-07T06:20:19;13.20;;;6.30;;
12681;SDS011;6405;59.208;18.216;2023-12-07T06:22:45;18.40;;;8.67;;
12681;SDS011;6405;59.208;18.216;2023-12-07T06:25:11;22.20;;;9.97;;
12681;SDS011;6405;59.208;18.216;2023-12-07T06:27:38;15.63;;;7.77;;
12681;SDS011;6405;59.208;18.216;2023-12-07T06:30:04;11.10;;;5.13;;
12681;SDS011;6405;59.208;18.216;2023-12-07T06:32:31;9.80;;;4.70;;
12681;SDS011;6405;59.208;18.216;2023-12-07T06:34:57;10.23;;;5.13;;
12681;SDS011;6405;59.208;18.216;2023-12-07T06:37:23;19.70;;;8.80;;
12681;SDS011;6405;59.208;18.216;2023-12-07T06:39:49;16.30;;;8.77;;
12681;SDS011;6405;59.208;18.216;2023-12-07T06:42:15;18.33;;;8.27;;
12681;SDS011;6405;59.208;18.216;2023-12-07T06:44:48;13.00;;;7.00;;
12681;SDS011;6405;59.208;18.216;2023-12-07T06:47:14;17.10;;;7.30;;
12681;SDS011;6405;59.208;18.216;2023-12-07T06:49:40;15.43;;;7.53;;
12681;SDS011;6405;59.208;18.216;2023-12-07T06:52:06;15.87;;;7.93;;
12681;SDS011;6405;59.208;18.216;2023-12-07T06:54:33;16.30;;;7.03;;
12681;SDS011;6405;59.208;18.216;2023-12-07T06:56:58;11.77;;;6.50;;
12681;SDS011;6405;59.208;18.216;2023-12-07T06:59:24;14.10;;;7.03;;
12681;SDS011;6405;59.208;18.216;2023-12-07T07:01:50;12.73;;;6.70;;
12681;SDS011;6405;59.208;18.216;2023-12-07T07:04:16;12.57;;;6.17;;
12681;SDS011;6405;59.208;18.216;2023-12-07T07:06:41;9.67;;;5.13;;
12681;SDS011;6405;59.208;18.216;2023-12-07T07:09:07;8.60;;;4.63;;
12681;SDS011;6405;59.208;18.216;2023-12-07T07:11:33;8.60;;;4.33;;
12681;SDS011;6405;59.208;18.216;2023-12-07T07:13:59;6.57;;;4.03;;
12681;SDS011;6405;59.208;18.216;2023-12-07T07:16:26;6.27;;;3.60;;
12681;SDS011;6405;59.208;18.216;2023-12-07T07:18:51;7.50;;;4.63;;
12681;SDS011;6405;59.208;18.216;2023-12-07T07:21:17;8.93;;;4.50;;
12681;SDS011;6405;59.208;18.216;2023-12-07T07:23:45;8.27;;;4.43;;
12681;SDS011;6405;59.208;18.216;2023-12-07T07:26:10;8.10;;;4.87;;
12681;SDS011;6405;59.208;18.216;2023-12-07T07:28:41;11.00;;;4.80;;
12681;SDS011;6405;59.208;18.216;2023-12-07T07:31:07;7.37;;;3.93;;
12681;SDS011;6405;59.208;18.216;2023-12-07T07:33:33;7.23;;;4.20;;
12681;SDS011;6405;59.208;18.216;2023-12-07T07:35:59;6.33;;;3.83;;
12681;SDS011;6405;59.208;18.216;2023-12-07T07:38:24;6.60;;;3.93;;
12681;SDS011;6405;59.208;18.216;2023-12-07T07:40:50;6.63;;;3.50;;
12681;SDS011;6405;59.208;18.216;2023-12-07T07:43:16;6.33;;;4.03;;
12681;SDS011;6405;59.208;18.216;2023-12-07T07:45:41;6.70;;;3.70;;
12681;SDS011;6405;59.208;18.216;2023-12-07T07:48:07;6.13;;;3.67;;
12681;SDS011;6405;59.208;18.216;2023-12-07T07:50:33;5.20;;;3.07;;
12681;SDS011;6405;59.208;18.216;2023-12-07T07:53:01;5.10;;;3.00;;
12681;SDS011;6405;59.208;18.216;2023-12-07T07:55:27;6.10;;;3.67;;
12681;SDS011;6405;59.208;18.216;2023-12-07T07:57:53;5.10;;;3.53;;
12681;SDS011;6405;59.208;18.216;2023-12-07T08:00:19;5.10;;;3.53;;
12681;SDS011;6405;59.208;18.216;2023-12-07T08:02:45;4.17;;;3.07;;
12681;SDS011;6405;59.208;18.216;2023-12-07T08:05:11;6.93;;;3.73;;
12681;SDS011;6405;59.208;18.216;2023-12-07T08:07:38;4.97;;;3.17;;
12681;SDS011;6405;59.208;18.216;2023-12-07T08:10:06;6.97;;;3.33;;
12681;SDS011;6405;59.208;18.216;2023-12-07T08:12:33;6.40;;;3.40;;
12681;SDS011;6405;59.208;18.216;2023-12-07T08:15:00;6.70;;;3.63;;
12681;SDS011;6405;59.208;18.216;2023-12-07T08:17:26;6.93;;;3.87;;
12681;SDS011;6405;59.208;18.216;2023-12-07T08:19:52;6.30;;;3.47;;
12681;SDS011;6405;59.208;18.216;2023-12-07T08:22:18;6.07;;;3.13;;
12681;SDS011;6405;59.208;18.216;2023-12-07T08:24:43;6.13;;;3.50;;
12681;SDS011;6405;59.208;18.216;2023-12-07T08:27:09;5.63;;;3.03;;
12681;SDS011;6405;59.208;18.216;2023-12-07T08:29:35;5.17;;;2.90;;
12681;SDS011;6405;59.208;18.216;2023-12-07T08:32:02;6.57;;;3.47;;
12681;SDS011;6405;59.208;18.216;2023-12-07T08:34:29;4.33;;;2.80;;
12681;SDS011;6405;59.208;18.216;2023-12-07T08:36:55;4.90;;;2.80;;
12681;SDS011;6405;59.208;18.216;2023-12-07T08:39:20;5.73;;;3.13;;
12681;SDS011;6405;59.208;18.216;2023-12-07T08:41:46;6.17;;;3.63;;
12681;SDS011;6405;59.208;18.216;2023-12-07T08:44:12;5.50;;;3.40;;
12681;SDS011;6405;59.208;18.216;2023-12-07T08:46:37;7.83;;;3.77;;
12681;SDS011;6405;59.208;18.216;2023-12-07T08:49:03;5.17;;;3.50;;
12681;SDS011;6405;59.208;18.216;2023-12-07T08:51:29;5.60;;;3.10;;
12681;SDS011;6405;59.208;18.216;2023-12-07T08:53:55;8.17;;;4.60;;
12681;SDS011;6405;59.208;18.216;2023-12-07T08:56:21;6.33;;;3.77;;
12681;SDS011;6405;59.208;18.216;2023-12-07T08:58:46;5.50;;;3.43;;
12681;SDS011;6405;59.208;18.216;2023-12-07T09:01:12;5.17;;;3.53;;
12681;SDS011;6405;59.208;18.216;2023-12-07T09:03:38;5.23;;;3.23;;
12681;SDS011;6405;59.208;18.216;2023-12-07T09:06:04;5.33;;;3.30;;
12681;SDS011;6405;59.208;18.216;2023-12-07T09:08:31;7.10;;;3.40;;
12681;SDS011;6405;59.208;18.216;2023-12-07T09:10:56;9.87;;;4.00;;
12681;SDS011;6405;59.208;18.216;2023-12-07T09:13:22;9.03;;;4.13;;
12681;SDS011;6405;59.208;18.216;2023-12-07T09:15:48;7.60;;;3.73;;
12681;SDS011;6405;59.208;18.216;2023-12-07T09:18:13;7.53;;;3.03;;
12681;SDS011;6405;59.208;18.216;2023-12-07T09:20:39;6.77;;;3.77;;
12681;SDS011;6405;59.208;18.216;2023-12-07T09:23:11;5.33;;;3.50;;
12681;SDS011;6405;59.208;18.216;2023-12-07T09:25:38;5.37;;;3.37;;
12681;SDS011;6405;59.208;18.216;2023-12-07T09:28:04;4.93;;;2.90;;
12681;SDS011;6405;59.208;18.216;2023-12-07T09:30:30;5.40;;;2.97;;
12681;SDS011;6405;59.208;18.216;2023-12-07T09:32:55;7.27;;;3.60;;
12681;SDS011;6405;59.208;18.216;2023-12-07T09:35:21;6.27;;;3.10;;
12681;SDS011;6405;59.208;18.216;2023-12-07T09:37:48;5.33;;;3.20;;
12681;SDS011;6405;59.208;18.216;2023-12-07T09:40:17;5.90;;;3.30;;
12681;SDS011;6405;59.208;18.216;2023-12-07T09:42:45;4.13;;;3.00;;
12681;SDS011;6405;59.208;18.216;2023-12-07T09:45:11;6.53;;;3.50;;
12681;SDS011;6405;59.208;18.216;2023-12-07T09:47:39;5.63;;;3.33;;
12681;SDS011;6405;59.208;18.216;2023-12-07T09:50:05;5.67;;;3.33;;
12681;SDS011;6405;59.208;18.216;2023-12-07T09:52:35;5.57;;;3.33;;
12681;SDS011;6405;59.208;18.216;2023-12-07T09:55:04;4.43;;;2.97;;
12681;SDS011;6405;59.208;18.216;2023-12-07T09:57:31;7.53;;;4.53;;
12681;SDS011;6405;59.208;18.216;2023-12-07T09:59:58;7.10;;;3.90;;
12681;SDS011;6405;59.208;18.216;2023-12-07T10:02:23;6.10;;;3.63;;
12681;SDS011;6405;59.208;18.216;2023-12-07T10:07:32;5.20;;;3.30;;
12681;SDS011;6405;59.208;18.216;2023-12-07T10:10:02;6.13;;;3.70;;
12681;SDS011;6405;59.208;18.216;2023-12-07T10:12:32;7.47;;;3.97;;
12681;SDS011;6405;59.208;18.216;2023-12-07T10:15:12;5.77;;;3.60;;
12681;SDS011;6405;59.208;18.216;2023-12-07T10:20:28;6.90;;;4.00;;
12681;SDS011;6405;59.208;18.216;2023-12-07T10:23:01;5.83;;;4.17;;
12681;SDS011;6405;59.208;18.216;2023-12-07T10:25:30;6.03;;;3.93;;
12681;SDS011;6405;59.208;18.216;2023-12-07T10:27:57;11.03;;;4.77;;
12681;SDS011;6405;59.208;18.216;2023-12-07T10:30:22;8.13;;;5.37;;
12681;SDS011;6405;59.208;18.216;2023-12-07T10:32:51;7.67;;;4.93;;
12681;SDS011;6405;59.208;18.216;2023-12-07T10:35:17;8.40;;;5.43;;
12681;SDS011;6405;59.208;18.216;2023-12-07T10:37:44;9.33;;;6.10;;
12681;SDS011;6405;59.208;18.216;2023-12-07T10:40:10;9.83;;;5.63;;
12681;SDS011;6405;59.208;18.216;2023-12-07T10:42:36;8.90;;;5.80;;
12681;SDS011;6405;59.208;18.216;2023-12-07T10:45:04;11.03;;;5.73;;
12681;SDS011;6405;59.208;18.216;2023-12-07T10:47:37;7.30;;;4.97;;
12681;SDS011;6405;59.208;18.216;2023-12-07T10:50:07;9.83;;;5.83;;
12681;SDS011;6405;59.208;18.216;2023-12-07T10:52:36;7.70;;;5.30;;
12681;SDS011;6405;59.208;18.216;2023-12-07T10:55:30;9.73;;;5.30;;
12681;SDS011;6405;59.208;18.216;2023-12-07T10:57:57;8.67;;;4.67;;
12681;SDS011;6405;59.208;18.216;2023-12-07T11:00:24;8.20;;;4.80;;
12681;SDS011;6405;59.208;18.216;2023-12-07T11:02:53;6.40;;;4.47;;
12681;SDS011;6405;59.208;18.216;2023-12-07T11:05:19;7.07;;;4.77;;
12681;SDS011;6405;59.208;18.216;2023-12-07T11:07:47;5.63;;;4.13;;
12681;SDS011;6405;59.208;18.216;2023-12-07T11:10:18;7.17;;;4.93;;
12681;SDS011;6405;59.208;18.216;2023-12-07T11:12:56;7.20;;;4.43;;
12681;SDS011;6405;59.208;18.216;2023-12-07T11:15:38;6.30;;;4.50;;
12681;SDS011;6405;59.208;18.216;2023-12-07T11:18:04;8.67;;;4.47;;
12681;SDS011;6405;59.208;18.216;2023-12-07T11:20:31;6.33;;;3.80;;
12681;SDS011;6405;59.208;18.216;2023-12-07T11:23:05;6.07;;;4.73;;
12681;SDS011;6405;59.208;18.216;2023-12-07T11:25:31;5.70;;;4.20;;
12681;SDS011;6405;59.208;18.216;2023-12-07T11:28:00;5.53;;;4.20;;
12681;SDS011;6405;59.208;18.216;2023-12-07T11:30:30;4.90;;;3.93;;
12681;SDS011;6405;59.208;18.216;2023-12-07T11:32:57;7.07;;;4.50;;
12681;SDS011;6405;59.208;18.216;2023-12-07T11:35:24;8.37;;;4.27;;
12681;SDS011;6405;59.208;18.216;2023-12-07T11:38:03;6.93;;;4.13;;
12681;SDS011;6405;59.208;18.216;2023-12-07T11:40:45;8.13;;;5.33;;
12681;SDS011;6405;59.208;18.216;2023-12-07T11:43:17;7.27;;;4.70;;
12681;SDS011;6405;59.208;18.216;2023-12-07T11:45:55;8.00;;;4.83;;
12681;SDS011;6405;59.208;18.216;2023-12-07T11:48:21;7.07;;;5.07;;
12681;SDS011;6405;59.208;18.216;2023-12-07T11:50:57;6.33;;;4.00;;
12681;SDS011;6405;59.208;18.216;2023-12-07T11:53:30;7.60;;;4.53;;
12681;SDS011;6405;59.208;18.216;2023-12-07T11:55:57;8.60;;;4.70;;
12681;SDS011;6405;59.208;18.216;2023-12-07T11:58:24;9.97;;;4.77;;
12681;SDS011;6405;59.208;18.216;2023-12-07T12:00:51;6.07;;;4.30;;
12681;SDS011;6405;59.208;18.216;2023-12-07T12:03:18;8.17;;;5.03;;
12681;SDS011;6405;59.208;18.216;2023-12-07T12:05:45;7.13;;;4.53;;
12681;SDS011;6405;59.208;18.216;2023-12-07T12:08:11;6.33;;;4.47;;
12681;SDS011;6405;59.208;18.216;2023-12-07T12:10:37;6.57;;;4.50;;
12681;SDS011;6405;59.208;18.216;2023-12-07T12:13:03;8.17;;;4.77;;
12681;SDS011;6405;59.208;18.216;2023-12-07T12:15:29;8.23;;;4.87;;
12681;SDS011;6405;59.208;18.216;2023-12-07T12:17:56;6.37;;;4.57;;
12681;SDS011;6405;59.208;18.216;2023-12-07T12:20:22;6.97;;;5.00;;
12681;SDS011;6405;59.208;18.216;2023-12-07T12:22:49;7.80;;;4.60;;
12681;SDS011;6405;59.208;18.216;2023-12-07T12:25:18;6.80;;;4.50;;
12681;SDS011;6405;59.208;18.216;2023-12-07T12:27:46;8.93;;;4.93;;
12681;SDS011;6405;59.208;18.216;2023-12-07T12:30:12;7.03;;;4.53;;
12681;SDS011;6405;59.208;18.216;2023-12-07T12:32:45;7.47;;;4.77;;
12681;SDS011;6405;59.208;18.216;2023-12-07T12:35:12;7.20;;;4.40;;
12681;SDS011;6405;59.208;18.216;2023-12-07T12:37:43;6.13;;;4.57;;
12681;SDS011;6405;59.208;18.216;2023-12-07T12:40:13;7.53;;;4.70;;
12681;SDS011;6405;59.208;18.216;2023-12-07T12:42:49;8.30;;;4.73;;
12681;SDS011;6405;59.208;18.216;2023-12-07T12:45:16;8.37;;;4.43;;
12681;SDS011;6405;59.208;18.216;2023-12-07T12:47:46;5.77;;;4.20;;
12681;SDS011;6405;59.208;18.216;2023-12-07T12:50:32;8.07;;;4.13;;
12681;SDS011;6405;59.208;18.216;2023-12-07T12:53:03;6.00;;;4.20;;
12681;SDS011;6405;59.208;18.216;2023-12-07T12:55:31;6.37;;;4.17;;
12681;SDS011;6405;59.208;18.216;2023-12-07T12:58:07;5.77;;;4.20;;
12681;SDS011;6405;59.208;18.216;2023-12-07T13:00:34;7.03;;;4.30;;
12681;SDS011;6405;59.208;18.216;2023-12-07T13:03:04;6.47;;;4.87;;
12681;SDS011;6405;59.208;18.216;2023-12-07T13:05:31;7.23;;;5.30;;
12681;SDS011;6405;59.208;18.216;2023-12-07T13:07:58;8.37;;;5.23;;
12681;SDS011;6405;59.208;18.216;2023-12-07T13:10:27;6.73;;;4.87;;
12681;SDS011;6405;59.208;18.216;2023-12-07T13:12:53;8.87;;;4.93;;
12681;SDS011;6405;59.208;18.216;2023-12-07T13:15:18;9.27;;;5.83;;
12681;SDS011;6405;59.208;18.216;2023-12-07T13:17:44;6.67;;;4.77;;
12681;SDS011;6405;59.208;18.216;2023-12-07T13:20:10;8.10;;;5.23;;
12681;SDS011;6405;59.208;18.216;2023-12-07T13:22:38;8.93;;;5.87;;
12681;SDS011;6405;59.208;18.216;2023-12-07T13:25:04;8.87;;;5.67;;
12681;SDS011;6405;59.208;18.216;2023-12-07T13:27:32;7.87;;;5.37;;
12681;SDS011;6405;59.208;18.216;2023-12-07T13:29:58;7.20;;;5.40;;
12681;SDS011;6405;59.208;18.216;2023-12-07T13:32:24;7.87;;;5.20;;
12681;SDS011;6405;59.208;18.216;2023-12-07T13:34:50;8.97;;;6.23;;
12681;SDS011;6405;59.208;18.216;2023-12-07T13:37:16;8.27;;;5.37;;
12681;SDS011;6405;59.208;18.216;2023-12-07T13:39:41;8.33;;;5.37;;
12681;SDS011;6405;59.208;18.216;2023-12-07T13:42:08;7.13;;;4.80;;
12681;SDS011;6405;59.208;18.216;2023-12-07T13:44:35;11.40;;;5.40;;
12681;SDS011;6405;59.208;18.216;2023-12-07T13:47:01;7.73;;;5.50;;
12681;SDS011;6405;59.208;18.216;2023-12-07T13:49:27;8.93;;;5.57;;
12681;SDS011;6405;59.208;18.216;2023-12-07T13:51:52;10.53;;;6.60;;
12681;SDS011;6405;59.208;18.216;2023-12-07T13:54:18;11.17;;;6.33;;
12681;SDS011;6405;59.208;18.216;2023-12-07T13:56:44;9.57;;;6.53;;
12681;SDS011;6405;59.208;18.216;2023-12-07T13:59:09;10.13;;;6.33;;
12681;SDS011;6405;59.208;18.216;2023-12-07T14:01:37;10.83;;;6.93;;
12681;SDS011;6405;59.208;18.216;2023-12-07T14:04:05;9.70;;;6.30;;
12681;SDS011;6405;59.208;18.216;2023-12-07T14:06:33;10.73;;;6.40;;
12681;SDS011;6405;59.208;18.216;2023-12-07T14:09:00;12.30;;;6.80;;
12681;SDS011;6405;59.208;18.216;2023-12-07T14:11:28;9.63;;;7.03;;
12681;SDS011;6405;59.208;18.216;2023-12-07T14:13:53;9.13;;;6.40;;
12681;SDS011;6405;59.208;18.216;2023-12-07T14:16:20;9.63;;;6.60;;
12681;SDS011;6405;59.208;18.216;2023-12-07T14:18:46;11.27;;;7.53;;
12681;SDS011;6405;59.208;18.216;2023-12-07T14:21:12;12.23;;;6.97;;
12681;SDS011;6405;59.208;18.216;2023-12-07T14:23:39;14.20;;;7.73;;
12681;SDS011;6405;59.208;18.216;2023-12-07T14:26:05;10.07;;;6.00;;
12681;SDS011;6405;59.208;18.216;2023-12-07T14:28:31;11.20;;;6.77;;
12681;SDS011;6405;59.208;18.216;2023-12-07T14:30:59;10.17;;;6.57;;
12681;SDS011;6405;59.208;18.216;2023-12-07T14:33:25;10.73;;;7.03;;
12681;SDS011;6405;59.208;18.216;2023-12-07T14:35:50;11.97;;;7.10;;
12681;SDS011;6405;59.208;18.216;2023-12-07T14:38:16;13.80;;;7.47;;
12681;SDS011;6405;59.208;18.216;2023-12-07T14:40:42;12.27;;;6.73;;
12681;SDS011;6405;59.208;18.216;2023-12-07T14:43:08;11.73;;;7.37;;
12681;SDS011;6405;59.208;18.216;2023-12-07T14:45:34;10.47;;;7.03;;
12681;SDS011;6405;59.208;18.216;2023-12-07T14:48:00;9.30;;;6.73;;
12681;SDS011;6405;59.208;18.216;2023-12-07T14:50:25;12.13;;;7.00;;
12681;SDS011;6405;59.208;18.216;2023-12-07T14:52:51;11.83;;;7.00;;